sensor_id;sensor_type;location;lat;lon;timestamp;pressure;altitude;pressure_sealevel;temperature;humidity
29903;BME280;30288;50.514;9.678;2023-11-21T00:00:20;98045.16;;;7.67;100.00
29903;BME280;30288;50.514;9.678;2023-11-21T00:02:25;98051.03;;;7.66;100.00
29903;BME280;30288;50.514;9.678;2023-11-21T00:04:30;98050.16;;;7.67;100.00
29903;BME280;30288;50.514;9.678;2023-11-21T00:06:35;98046.81;;;7.68;100.00
29903;BME280;30288;50.514;9.678;2023-11-21T00:08:44;98047.53;;;7.72;100.00
29903;BME280;30288;50.514;9.678;2023-11-21T00:10:49;98045.03;;;7.72;100.00
29903;BME280;30288;50.514;9.678;2023-11-21T00:12:55;98047.66;;;7.67;100.00
29903;BME280;30288;50.514;9.678;2023-11-21T00:15:01;98055.03;;;7.73;100.00
29903;BME280;30288;50.514;9.678;2023-11-21T00:17:08;98066.69;;;7.74;100.00
29903;BME280;30288;50.514;9.678;2023-11-21T00:19:13;98069.25;;;7.71;100.00
29903;BME280;30288;50.514;9.678;2023-11-21T00:21:16;98057.66;;;7.69;100.00
29903;BME280;30288;50.514;9.678;2023-11-21T00:23:22;98063.50;;;7.69;100.00
29903;BME280;30288;50.514;9.678;2023-11-21T00:25:30;98058.47;;;7.69;100.00
29903;BME280;30288;50.514;9.678;2023-11-21T00:27:36;98068.50;;;7.69;100.00
29903;BME280;30288;50.514;9.678;2023-11-21T00:29:41;98066.84;;;7.68;100.00
29903;BME280;30288;50.514;9.678;2023-11-21T00:31:44;98071.00;;;7.69;100.00
29903;BME280;30288;50.514;9.678;2023-11-21T00:33:49;98068.50;;;7.69;100.00
29903;BME280;30288;50.514;9.678;2023-11-21T00:35:55;98071.03;;;7.68;100.00
29903;BME280;30288;50.514;9.678;2023-11-21T00:38:00;98075.13;;;7.70;100.00
29903;BME280;30288;50.514;9.678;2023-11-21T00:40:09;98074.28;;;7.71;100.00
29903;BME280;30288;50.514;9.678;2023-11-21T00:42:21;98070.88;;;7.74;100.00
29903;BME280;30288;50.514;9.678;2023-11-21T00:44:26;98073.41;;;7.72;100.00
29903;BME280;30288;50.514;9.678;2023-11-21T00:46:31;98074.31;;;7.70;100.00
29903;BME280;30288;50.514;9.678;2023-11-21T00:48:37;98070.13;;;7.70;100.00
29903;BME280;30288;50.514;9.678;2023-11-21T00:50:43;98075.06;;;7.73;100.00
29903;BME280;30288;50.514;9.678;2023-11-21T00:52:48;98071.78;;;7.71;100.00
29903;BME280;30288;50.514;9.678;2023-11-21T00:54:53;98068.50;;;7.69;100.00
29903;BME280;30288;50.514;9.678;2023-11-21T00:57:02;98075.06;;;7.73;100.00
29903;BME280;30288;50.514;9.678;2023-11-21T00:59:11;98073.41;;;7.72;100.00
29903;BME280;30288;50.514;9.678;2023-11-21T01:01:16;98073.41;;;7.72;100.00
29903;BME280;30288;50.514;9.678;2023-11-21T01:03:22;98074.28;;;7.71;100.00
29903;BME280;30288;50.514;9.678;2023-11-21T01:05:28;98076.72;;;7.74;100.00
29903;BME280;30288;50.514;9.678;2023-11-21T01:07:33;98080.09;;;7.73;100.00
29903;BME280;30288;50.514;9.678;2023-11-21T01:09:39;98079.28;;;7.71;100.00
29903;BME280;30288;50.514;9.678;2023-11-21T01:11:46;98080.97;;;7.71;100.00
29903;BME280;30288;50.514;9.678;2023-11-21T01:13:52;98081.03;;;7.69;100.00
29903;BME280;30288;50.514;9.678;2023-11-21T01:16:01;98079.38;;;7.68;100.00
29903;BME280;30288;50.514;9.678;2023-11-21T01:18:09;98078.53;;;7.69;100.00
29903;BME280;30288;50.514;9.678;2023-11-21T01:20:14;98091.81;;;7.71;100.00
29903;BME280;30288;50.514;9.678;2023-11-21T01:22:21;98085.13;;;7.72;100.00
29903;BME280;30288;50.514;9.678;2023-11-21T01:24:28;98090.88;;;7.75;100.00
29903;BME280;30288;50.514;9.678;2023-11-21T01:26:34;98091.75;;;7.74;100.00
29903;BME280;30288;50.514;9.678;2023-11-21T01:28:39;98088.44;;;7.74;100.00
29903;BME280;30288;50.514;9.678;2023-11-21T01:30:44;98092.53;;;7.76;100.00
29903;BME280;30288;50.514;9.678;2023-11-21T01:32:52;98090.00;;;7.76;100.00
29903;BME280;30288;50.514;9.678;2023-11-21T01:35:00;98091.66;;;7.77;100.00
29903;BME280;30288;50.514;9.678;2023-11-21T01:37:08;98089.03;;;7.82;100.00
29903;BME280;30288;50.514;9.678;2023-11-21T01:39:15;98097.50;;;7.78;100.00
29903;BME280;30288;50.514;9.678;2023-11-21T01:41:26;98091.56;;;7.80;100.00
29903;BME280;30288;50.514;9.678;2023-11-21T01:43:33;98096.59;;;7.80;100.00
29903;BME280;30288;50.514;9.678;2023-11-21T01:45:40;98104.91;;;7.82;100.00
29903;BME280;30288;50.514;9.678;2023-11-21T01:47:48;98105.66;;;7.84;100.00
29903;BME280;30288;50.514;9.678;2023-11-21T01:49:58;98104.91;;;7.82;100.00
29903;BME280;30288;50.514;9.678;2023-11-21T01:52:04;98106.59;;;7.80;100.00
29903;BME280;30288;50.514;9.678;2023-11-21T01:54:10;98108.34;;;7.78;100.00
29903;BME280;30288;50.514;9.678;2023-11-21T01:56:19;98106.69;;;7.77;100.00
29903;BME280;30288;50.514;9.678;2023-11-21T01:58:24;98105.06;;;7.76;100.00
29903;BME280;30288;50.514;9.678;2023-11-21T02:00:30;98098.31;;;7.78;100.00
29903;BME280;30288;50.514;9.678;2023-11-21T02:02:36;98106.69;;;7.77;100.00
29903;BME280;30288;50.514;9.678;2023-11-21T02:04:39;98113.38;;;7.78;100.00
29903;BME280;30288;50.514;9.678;2023-11-21T02:06:47;98114.94;;;7.81;100.00
29903;BME280;30288;50.514;9.678;2023-11-21T02:08:55;98118.38;;;7.78;100.00
29903;BME280;30288;50.514;9.678;2023-11-21T02:10:58;98118.38;;;7.78;100.00
29903;BME280;30288;50.514;9.678;2023-11-21T02:13:04;98120.00;;;7.79;100.00
29903;BME280;30288;50.514;9.678;2023-11-21T02:15:10;98115.81;;;7.80;100.00
29903;BME280;30288;50.514;9.678;2023-11-21T02:17:23;98119.94;;;7.82;100.00
29903;BME280;30288;50.514;9.678;2023-11-21T02:19:29;98119.84;;;7.85;100.00
29903;BME280;30288;50.514;9.678;2023-11-21T02:21:35;98119.09;;;7.83;100.00
29903;BME280;30288;50.514;9.678;2023-11-21T02:23:45;98119.09;;;7.83;100.00
29903;BME280;30288;50.514;9.678;2023-11-21T02:25:51;98123.28;;;7.81;100.00
29903;BME280;30288;50.514;9.678;2023-11-21T02:27:58;98114.91;;;7.82;100.00
29903;BME280;30288;50.514;9.678;2023-11-21T02:30:06;98117.50;;;7.79;100.00
29903;BME280;30288;50.514;9.678;2023-11-21T02:32:16;98119.22;;;7.77;100.00
29903;BME280;30288;50.514;9.678;2023-11-21T02:34:25;98106.78;;;7.74;100.00
29903;BME280;30288;50.514;9.678;2023-11-21T02:36:30;98113.44;;;7.75;100.00
29903;BME280;30288;50.514;9.678;2023-11-21T02:38:32;98113.53;;;7.72;100.00
29903;BME280;30288;50.514;9.678;2023-11-21T02:40:40;98119.38;;;7.71;100.00
29903;BME280;30288;50.514;9.678;2023-11-21T02:42:45;98114.38;;;7.71;100.00
29903;BME280;30288;50.514;9.678;2023-11-21T02:44:54;98116.06;;;7.71;100.00
29903;BME280;30288;50.514;9.678;2023-11-21T02:46:59;98111.97;;;7.68;100.00
29903;BME280;30288;50.514;9.678;2023-11-21T02:49:04;98110.19;;;7.72;100.00
29903;BME280;30288;50.514;9.678;2023-11-21T02:51:12;98113.44;;;7.75;100.00
29903;BME280;30288;50.514;9.678;2023-11-21T02:53:18;98110.88;;;7.77;100.00
29903;BME280;30288;50.514;9.678;2023-11-21T02:55:23;98108.41;;;7.75;100.00
29903;BME280;30288;50.514;9.678;2023-11-21T02:57:31;98108.38;;;7.77;100.00
29903;BME280;30288;50.514;9.678;2023-11-21T02:59:36;98106.69;;;7.77;100.00
29903;BME280;30288;50.514;9.678;2023-11-21T03:01:41;98109.31;;;7.74;100.00
29903;BME280;30288;50.514;9.678;2023-11-21T03:03:45;98104.22;;;7.76;100.00
29903;BME280;30288;50.514;9.678;2023-11-21T03:05:54;98111.75;;;7.76;100.00
29903;BME280;30288;50.514;9.678;2023-11-21T03:07:59;98114.31;;;7.74;100.00
29903;BME280;30288;50.514;9.678;2023-11-21T03:10:07;98109.34;;;7.71;100.00
29903;BME280;30288;50.514;9.678;2023-11-21T03:12:13;98112.69;;;7.72;100.00
29903;BME280;30288;50.514;9.678;2023-11-21T03:14:21;98111.81;;;7.74;100.00
29903;BME280;30288;50.514;9.678;2023-11-21T03:16:27;98110.19;;;7.72;100.00
29903;BME280;30288;50.514;9.678;2023-11-21T03:18:33;98111.72;;;7.77;100.00
29903;BME280;30288;50.514;9.678;2023-11-21T03:20:36;98113.53;;;7.72;100.00
29903;BME280;30288;50.514;9.678;2023-11-21T03:22:41;98120.25;;;7.70;100.00
29903;BME280;30288;50.514;9.678;2023-11-21T03:24:47;98108.66;;;7.66;100.00
29903;BME280;30288;50.514;9.678;2023-11-21T03:26:49;98106.22;;;7.65;100.00
29903;BME280;30288;50.514;9.678;2023-11-21T03:28:55;98104.56;;;7.64;100.00
29903;BME280;30288;50.514;9.678;2023-11-21T03:31:03;98105.44;;;7.61;100.00
29903;BME280;30288;50.514;9.678;2023-11-21T03:33:08;98103.81;;;7.60;100.00
29903;BME280;30288;50.514;9.678;2023-11-21T03:35:14;98107.19;;;7.59;100.00
29903;BME280;30288;50.514;9.678;2023-11-21T03:37:20;98107.09;;;7.62;100.00
29903;BME280;30288;50.514;9.678;2023-11-21T03:39:26;98111.25;;;7.63;100.00
29903;BME280;30288;50.514;9.678;2023-11-21T03:41:31;98117.22;;;7.59;100.00
29903;BME280;30288;50.514;9.678;2023-11-21T03:43:37;98115.53;;;7.60;100.00
29903;BME280;30288;50.514;9.678;2023-11-21T03:45:42;98120.56;;;7.58;100.00
29903;BME280;30288;50.514;9.678;2023-11-21T03:47:50;98123.78;;;7.63;100.00
29903;BME280;30288;50.514;9.678;2023-11-21T03:49:53;98130.59;;;7.58;100.00
29903;BME280;30288;50.514;9.678;2023-11-21T03:51:59;98132.31;;;7.56;100.00
29903;BME280;30288;50.514;9.678;2023-11-21T03:54:06;98135.69;;;7.55;100.00
29903;BME280;30288;50.514;9.678;2023-11-21T03:56:14;98136.56;;;7.54;100.00
29903;BME280;30288;50.514;9.678;2023-11-21T03:58:17;98134.03;;;7.54;100.00
29903;BME280;30288;50.514;9.678;2023-11-21T04:00:22;98134.94;;;7.52;100.00
29903;BME280;30288;50.514;9.678;2023-11-21T04:02:28;98140.72;;;7.55;100.00
29903;BME280;30288;50.514;9.678;2023-11-21T04:04:37;98140.75;;;7.52;100.00
29903;BME280;30288;50.514;9.678;2023-11-21T04:06:42;98146.59;;;7.53;100.00
29903;BME280;30288;50.514;9.678;2023-11-21T04:08:47;98152.53;;;7.50;100.00
29903;BME280;30288;50.514;9.678;2023-11-21T04:10:52;98160.91;;;7.49;100.00
29903;BME280;30288;50.514;9.678;2023-11-21T04:12:58;98151.75;;;7.46;100.00
29903;BME280;30288;50.514;9.678;2023-11-21T04:15:05;98157.69;;;7.44;100.00
29903;BME280;30288;50.514;9.678;2023-11-21T04:17:11;98160.94;;;7.46;100.00
29903;BME280;30288;50.514;9.678;2023-11-21T04:19:16;98159.38;;;7.42;100.00
29903;BME280;30288;50.514;9.678;2023-11-21T04:21:24;98159.38;;;7.42;100.00
29903;BME280;30288;50.514;9.678;2023-11-21T04:23:29;98164.41;;;7.42;100.00
29903;BME280;30288;50.514;9.678;2023-11-21T04:25:36;98156.13;;;7.40;100.00
29903;BME280;30288;50.514;9.678;2023-11-21T04:27:44;98168.59;;;7.41;100.00
29903;BME280;30288;50.514;9.678;2023-11-21T04:29:49;98166.91;;;7.42;100.00
29903;BME280;30288;50.514;9.678;2023-11-21T04:31:54;98171.06;;;7.43;100.00
29903;BME280;30288;50.514;9.678;2023-11-21T04:34:00;98171.06;;;7.43;100.00
29903;BME280;30288;50.514;9.678;2023-11-21T04:36:07;98176.78;;;7.48;100.00
29903;BME280;30288;50.514;9.678;2023-11-21T04:38:15;98174.28;;;7.48;100.00
29903;BME280;30288;50.514;9.678;2023-11-21T04:40:21;98170.19;;;7.45;100.00
29903;BME280;30288;50.514;9.678;2023-11-21T04:42:24;98169.34;;;7.45;100.00
29903;BME280;30288;50.514;9.678;2023-11-21T04:44:30;98174.41;;;7.42;100.00
29903;BME280;30288;50.514;9.678;2023-11-21T04:46:35;98168.66;;;7.38;100.00
29903;BME280;30288;50.514;9.678;2023-11-21T04:48:41;98172.13;;;7.33;100.00
29903;BME280;30288;50.514;9.678;2023-11-21T04:50:47;98169.84;;;7.24;100.00
29903;BME280;30288;50.514;9.678;2023-11-21T04:52:53;98172.50;;;7.18;100.00
29903;BME280;30288;50.514;9.678;2023-11-21T04:55:01;98174.31;;;7.13;100.00
29903;BME280;30288;50.514;9.678;2023-11-21T04:57:07;98172.75;;;7.07;100.00
29903;BME280;30288;50.514;9.678;2023-11-21T04:59:12;98178.72;;;7.01;100.00
29903;BME280;30288;50.514;9.678;2023-11-21T05:01:18;98181.34;;;6.95;100.00
29903;BME280;30288;50.514;9.678;2023-11-21T05:03:23;98190.59;;;6.93;100.00
29903;BME280;30288;50.514;9.678;2023-11-21T05:05:28;98183.88;;;6.95;100.00
29903;BME280;30288;50.514;9.678;2023-11-21T05:07:34;98188.75;;;7.01;100.00
29903;BME280;30288;50.514;9.678;2023-11-21T05:09:42;98196.97;;;7.07;100.00
29903;BME280;30288;50.514;9.678;2023-11-21T05:11:51;98195.13;;;7.15;100.00
29903;BME280;30288;50.514;9.678;2023-11-21T05:13:57;98195.03;;;7.18;100.00
29903;BME280;30288;50.514;9.678;2023-11-21T05:16:04;98199.91;;;7.24;100.00
29903;BME280;30288;50.514;9.678;2023-11-21T05:18:10;98199.06;;;7.25;100.00
29903;BME280;30288;50.514;9.678;2023-11-21T05:20:17;98206.47;;;7.28;100.00
29903;BME280;30288;50.514;9.678;2023-11-21T05:22:24;98208.06;;;7.32;100.00
29903;BME280;30288;50.514;9.678;2023-11-21T05:24:30;98211.25;;;7.38;100.00
29903;BME280;30288;50.514;9.678;2023-11-21T05:26:35;98205.53;;;7.33;100.00
29903;BME280;30288;50.514;9.678;2023-11-21T05:28:43;98216.28;;;7.37;100.00
29903;BME280;30288;50.514;9.678;2023-11-21T05:30:49;98209.56;;;7.39;100.00
29903;BME280;30288;50.514;9.678;2023-11-21T05:33:15;98216.16;;;7.43;100.00
29903;BME280;30288;50.514;9.678;2023-11-21T05:35:21;98217.06;;;7.40;100.00
29903;BME280;30288;50.514;9.678;2023-11-21T05:37:26;98218.69;;;7.41;100.00
29903;BME280;30288;50.514;9.678;2023-11-21T05:39:32;98223.78;;;7.38;100.00
29903;BME280;30288;50.514;9.678;2023-11-21T05:41:38;98230.22;;;7.48;100.00
29903;BME280;30288;50.514;9.678;2023-11-21T05:43:45;98231.19;;;7.43;100.00
29903;BME280;30288;50.514;9.678;2023-11-21T05:45:51;98233.44;;;7.54;100.00
29903;BME280;30288;50.514;9.678;2023-11-21T05:47:57;98240.28;;;7.47;100.00
29903;BME280;30288;50.514;9.678;2023-11-21T05:50:03;98247.88;;;7.44;100.00
29903;BME280;30288;50.514;9.678;2023-11-21T05:52:06;98257.16;;;7.40;100.00
29903;BME280;30288;50.514;9.678;2023-11-21T05:54:12;98258.00;;;7.39;100.00
29903;BME280;30288;50.514;9.678;2023-11-21T05:56:17;98249.53;;;7.45;100.00
29903;BME280;30288;50.514;9.678;2023-11-21T05:58:23;98257.09;;;7.42;100.00
29903;BME280;30288;50.514;9.678;2023-11-21T06:00:31;98257.97;;;7.41;100.00
29903;BME280;30288;50.514;9.678;2023-11-21T06:02:37;98257.19;;;7.37;100.00
29903;BME280;30288;50.514;9.678;2023-11-21T06:04:39;98259.75;;;7.36;100.00
29903;BME280;30288;50.514;9.678;2023-11-21T06:06:45;98263.00;;;7.39;100.00
29903;BME280;30288;50.514;9.678;2023-11-21T06:08:50;98259.75;;;7.36;100.00
29903;BME280;30288;50.514;9.678;2023-11-21T06:10:55;98265.63;;;7.33;100.00
29903;BME280;30288;50.514;9.678;2023-11-21T06:13:00;98258.22;;;7.29;100.00
29903;BME280;30288;50.514;9.678;2023-11-21T06:15:08;98270.03;;;7.24;100.00
29903;BME280;30288;50.514;9.678;2023-11-21T06:17:18;98275.88;;;7.24;100.00
29903;BME280;30288;50.514;9.678;2023-11-21T06:19:24;98275.88;;;7.23;100.00
29903;BME280;30288;50.514;9.678;2023-11-21T06:21:29;98280.78;;;7.29;100.00
29903;BME280;30288;50.514;9.678;2023-11-21T06:23:32;98280.75;;;7.30;100.00
29903;BME280;30288;50.514;9.678;2023-11-21T06:25:38;98290.13;;;7.21;100.00
29903;BME280;30288;50.514;9.678;2023-11-21T06:27:47;98273.34;;;7.26;100.00
29903;BME280;30288;50.514;9.678;2023-11-21T06:29:54;98281.91;;;7.16;100.00
29903;BME280;30288;50.514;9.678;2023-11-21T06:32:00;98292.03;;;7.10;100.00
29903;BME280;30288;50.514;9.678;2023-11-21T06:34:10;98293.69;;;7.11;100.00
29903;BME280;30288;50.514;9.678;2023-11-21T06:36:16;98292.13;;;7.07;100.00
29903;BME280;30288;50.514;9.678;2023-11-21T06:38:21;98303.81;;;7.04;100.00
29903;BME280;30288;50.514;9.678;2023-11-21T06:40:27;98302.19;;;7.03;100.00
29903;BME280;30288;50.514;9.678;2023-11-21T06:42:32;98303.88;;;7.03;100.00
29903;BME280;30288;50.514;9.678;2023-11-21T06:44:41;98295.53;;;7.02;100.00
29903;BME280;30288;50.514;9.678;2023-11-21T06:46:46;98307.19;;;7.03;100.00
29903;BME280;30288;50.514;9.678;2023-11-21T06:48:52;98310.56;;;7.02;100.00
29903;BME280;30288;50.514;9.678;2023-11-21T06:51:01;98315.50;;;7.06;100.00
29903;BME280;30288;50.514;9.678;2023-11-21T06:53:06;98320.50;;;7.06;100.00
29903;BME280;30288;50.514;9.678;2023-11-21T06:55:12;98322.22;;;7.03;100.00
29903;BME280;30288;50.514;9.678;2023-11-21T06:57:18;98327.09;;;7.10;100.00
29903;BME280;30288;50.514;9.678;2023-11-21T06:59:21;98324.53;;;7.13;100.00
29903;BME280;30288;50.514;9.678;2023-11-21T07:01:26;98322.91;;;7.12;100.00
29903;BME280;30288;50.514;9.678;2023-11-21T07:03:32;98325.41;;;7.12;100.00
29903;BME280;30288;50.514;9.678;2023-11-21T07:05:40;98322.03;;;7.13;100.00
29903;BME280;30288;50.514;9.678;2023-11-21T07:07:49;98321.97;;;7.16;100.00
29903;BME280;30288;50.514;9.678;2023-11-21T07:09:55;98325.25;;;7.18;100.00
29903;BME280;30288;50.514;9.678;2023-11-21T07:12:00;98329.50;;;7.14;100.00
29903;BME280;30288;50.514;9.678;2023-11-21T07:14:06;98334.50;;;7.14;100.00
29903;BME280;30288;50.514;9.678;2023-11-21T07:16:12;98342.84;;;7.16;100.00
29903;BME280;30288;50.514;9.678;2023-11-21T07:18:18;98344.44;;;7.19;100.00
29903;BME280;30288;50.514;9.678;2023-11-21T07:20:23;98342.75;;;7.19;100.00
29903;BME280;30288;50.514;9.678;2023-11-21T07:22:29;98351.81;;;7.25;100.00
29903;BME280;30288;50.514;9.678;2023-11-21T07:24:37;98354.25;;;7.28;100.00
29903;BME280;30288;50.514;9.678;2023-11-21T07:26:43;98355.03;;;7.31;100.00
29903;BME280;30288;50.514;9.678;2023-11-21T07:28:49;98356.75;;;7.29;100.00
29903;BME280;30288;50.514;9.678;2023-11-21T07:30:54;98355.13;;;7.27;100.00
29903;BME280;30288;50.514;9.678;2023-11-21T07:32:59;98359.41;;;7.22;100.00
29903;BME280;30288;50.514;9.678;2023-11-21T07:35:06;98362.03;;;7.16;100.00
29903;BME280;30288;50.514;9.678;2023-11-21T07:37:11;98361.41;;;7.04;100.00
29903;BME280;30288;50.514;9.678;2023-11-21T07:39:16;98356.59;;;6.94;100.00
29903;BME280;30288;50.514;9.678;2023-11-21T07:41:24;98359.28;;;6.86;100.00
29903;BME280;30288;50.514;9.678;2023-11-21T07:43:32;98367.88;;;6.73;100.00
29903;BME280;30288;50.514;9.678;2023-11-21T07:45:38;98374.81;;;6.59;100.00
29903;BME280;30288;50.514;9.678;2023-11-21T07:47:48;98369.91;;;6.53;100.00
29903;BME280;30288;50.514;9.678;2023-11-21T07:49:51;98377.50;;;6.48;100.00
29903;BME280;30288;50.514;9.678;2023-11-21T07:51:58;98388.22;;;6.55;100.00
29903;BME280;30288;50.514;9.678;2023-11-21T07:54:00;98385.38;;;6.75;100.00
29903;BME280;30288;50.514;9.678;2023-11-21T07:56:08;98389.06;;;6.98;100.00
29903;BME280;30288;50.514;9.678;2023-11-21T07:58:17;98391.16;;;7.20;100.00
29903;BME280;30288;50.514;9.678;2023-11-21T08:00:22;98395.03;;;7.36;100.00
29903;BME280;30288;50.514;9.678;2023-11-21T08:02:27;98392.16;;;7.51;100.00
29903;BME280;30288;50.514;9.678;2023-11-21T08:04:33;98391.81;;;7.69;100.00
29903;BME280;30288;50.514;9.678;2023-11-21T08:06:39;98399.16;;;7.75;100.00
29903;BME280;30288;50.514;9.678;2023-11-21T08:08:44;98393.94;;;7.84;100.00
29903;BME280;30288;50.514;9.678;2023-11-21T08:10:51;98392.16;;;7.89;100.00
29903;BME280;30288;50.514;9.678;2023-11-21T08:12:58;98393.75;;;7.93;100.00
29903;BME280;30288;50.514;9.678;2023-11-21T08:15:07;98391.09;;;8.00;100.00
29903;BME280;30288;50.514;9.678;2023-11-21T08:17:11;98389.94;;;8.13;100.00
29903;BME280;30288;50.514;9.678;2023-11-21T08:19:19;98396.59;;;8.15;100.00
29903;BME280;30288;50.514;9.678;2023-11-21T08:21:27;98400.88;;;8.12;100.00
29903;BME280;30288;50.514;9.678;2023-11-21T08:23:32;98405.00;;;8.13;100.00
29903;BME280;30288;50.514;9.678;2023-11-21T08:25:37;98410.56;;;8.25;100.00
29903;BME280;30288;50.514;9.678;2023-11-21T08:27:44;98411.03;;;8.41;100.00
29903;BME280;30288;50.514;9.678;2023-11-21T08:29:49;98410.88;;;8.47;100.00
29903;BME280;30288;50.514;9.678;2023-11-21T08:31:57;98420.03;;;8.50;100.00
29903;BME280;30288;50.514;9.678;2023-11-21T08:34:00;98419.22;;;8.49;100.00
29903;BME280;30288;50.514;9.678;2023-11-21T08:36:08;98414.19;;;8.49;100.00
29903;BME280;30288;50.514;9.678;2023-11-21T08:38:14;98424.16;;;8.52;100.00
29903;BME280;30288;50.514;9.678;2023-11-21T08:40:20;98422.44;;;8.54;100.00
29903;BME280;30288;50.514;9.678;2023-11-21T08:42:24;98423.22;;;8.56;100.00
29903;BME280;30288;50.514;9.678;2023-11-21T08:44:30;98413.88;;;8.61;100.00
29903;BME280;30288;50.514;9.678;2023-11-21T08:46:36;98418.84;;;8.64;100.00
29903;BME280;30288;50.514;9.678;2023-11-21T08:48:44;98425.81;;;8.53;100.00
29903;BME280;30288;50.514;9.678;2023-11-21T08:50:50;98431.63;;;8.55;100.00
29903;BME280;30288;50.514;9.678;2023-11-21T08:52:56;98438.47;;;8.49;100.00
29903;BME280;30288;50.514;9.678;2023-11-21T08:55:03;98442.75;;;8.45;100.00
29903;BME280;30288;50.514;9.678;2023-11-21T08:57:10;98447.59;;;8.51;100.00
29903;BME280;30288;50.514;9.678;2023-11-21T08:59:13;98453.06;;;8.67;100.00
29903;BME280;30288;50.514;9.678;2023-11-21T09:01:19;98465.66;;;8.65;100.00
29903;BME280;30288;50.514;9.678;2023-11-21T09:03:25;98467.16;;;8.72;100.00
29903;BME280;30288;50.514;9.678;2023-11-21T09:05:34;98464.75;;;8.68;100.00
29903;BME280;30288;50.514;9.678;2023-11-21T09:07:37;98470.63;;;8.68;100.00
29903;BME280;30288;50.514;9.678;2023-11-21T09:09:43;98473.97;;;8.67;100.00
29903;BME280;30288;50.514;9.678;2023-11-21T09:11:48;98473.25;;;8.64;100.00
29903;BME280;30288;50.514;9.678;2023-11-21T09:13:54;98473.25;;;8.64;100.00
29903;BME280;30288;50.514;9.678;2023-11-21T09:16:00;98487.63;;;8.57;100.00
29903;BME280;30288;50.514;9.678;2023-11-21T09:18:05;98484.34;;;8.55;100.00
29903;BME280;30288;50.514;9.678;2023-11-21T09:20:11;98484.34;;;8.55;100.00
29903;BME280;30288;50.514;9.678;2023-11-21T09:22:20;98493.25;;;8.65;100.00
29903;BME280;30288;50.514;9.678;2023-11-21T09:24:27;98495.34;;;8.50;100.00
29903;BME280;30288;50.514;9.678;2023-11-21T09:26:32;98497.91;;;8.47;100.00
29903;BME280;30288;50.514;9.678;2023-11-21T09:28:37;98501.22;;;8.47;100.00
29903;BME280;30288;50.514;9.678;2023-11-21T09:30:45;98501.22;;;8.47;100.00
29903;BME280;30288;50.514;9.678;2023-11-21T09:32:48;98499.38;;;8.55;100.00
29903;BME280;30288;50.514;9.678;2023-11-21T09:34:53;98495.16;;;8.56;100.00
29903;BME280;30288;50.514;9.678;2023-11-21T09:37:01;98500.06;;;8.62;100.00
29903;BME280;30288;50.514;9.678;2023-11-21T09:39:11;98495.03;;;8.62;100.00
29903;BME280;30288;50.514;9.678;2023-11-21T09:41:25;98497.38;;;8.69;100.00
29903;BME280;30288;50.514;9.678;2023-11-21T09:43:37;98495.63;;;9.05;100.00
29903;BME280;30288;50.514;9.678;2023-11-21T09:45:46;98496.09;;;9.19;100.00
29903;BME280;30288;50.514;9.678;2023-11-21T09:47:53;98499.28;;;9.26;100.00
29903;BME280;30288;50.514;9.678;2023-11-21T09:50:02;98501.69;;;9.29;100.00
29903;BME280;30288;50.514;9.678;2023-11-21T09:52:22;98497.53;;;9.28;100.00
29903;BME280;30288;50.514;9.678;2023-11-21T09:54:31;98508.19;;;9.36;100.00
29903;BME280;30288;50.514;9.678;2023-11-21T09:56:38;98508.84;;;9.44;100.00
29903;BME280;30288;50.514;9.678;2023-11-21T09:58:43;98509.09;;;9.35;100.00
29903;BME280;30288;50.514;9.678;2023-11-21T10:00:54;98506.94;;;9.21;100.00
29903;BME280;30288;50.514;9.678;2023-11-21T10:03:00;98508.91;;;9.10;100.00
29903;BME280;30288;50.514;9.678;2023-11-21T10:05:03;98504.69;;;9.11;100.00
29903;BME280;30288;50.514;9.678;2023-11-21T10:07:09;98506.41;;;9.09;100.00
29903;BME280;30288;50.514;9.678;2023-11-21T10:09:16;98509.53;;;8.85;100.00
29903;BME280;30288;50.514;9.678;2023-11-21T10:11:25;98510.09;;;8.96;100.00
29903;BME280;30288;50.514;9.678;2023-11-21T10:13:33;98508.53;;;8.92;100.00
29903;BME280;30288;50.514;9.678;2023-11-21T10:15:41;98508.69;;;8.86;100.00
29903;BME280;30288;50.514;9.678;2023-11-21T10:17:49;98517.84;;;8.88;100.00
29903;BME280;30288;50.514;9.678;2023-11-21T10:19:55;98511.66;;;9.00;100.00
29903;BME280;30288;50.514;9.678;2023-11-21T10:22:03;98512.94;;;9.16;100.00
29903;BME280;30288;50.514;9.678;2023-11-21T10:24:09;98516.75;;;9.31;100.00
29903;BME280;30288;50.514;9.678;2023-11-21T10:26:15;98516.16;;;9.21;100.00
29903;BME280;30288;50.514;9.678;2023-11-21T10:28:38;98516.09;;;9.22;100.00
29903;BME280;30288;50.514;9.678;2023-11-21T10:30:43;98528.25;;;9.39;100.00
29903;BME280;30288;50.514;9.678;2023-11-21T10:32:49;98523.94;;;9.43;100.00
29903;BME280;30288;50.514;9.678;2023-11-21T10:34:58;98526.34;;;9.47;100.00
29903;BME280;30288;50.514;9.678;2023-11-21T10:37:12;98524.88;;;9.70;100.00
29903;BME280;30288;50.514;9.678;2023-11-21T10:39:20;98525.53;;;9.76;100.00
29903;BME280;30288;50.514;9.678;2023-11-21T10:41:26;98527.41;;;9.99;100.00
29903;BME280;30288;50.514;9.678;2023-11-21T10:43:29;98529.66;;;10.08;100.00
29903;BME280;30288;50.514;9.678;2023-11-21T10:45:40;98534.38;;;9.89;100.00
29903;BME280;30288;50.514;9.678;2023-11-21T10:47:45;98540.19;;;9.93;100.00
29903;BME280;30288;50.514;9.678;2023-11-21T10:49:51;98545.06;;;9.97;100.00
29903;BME280;30288;50.514;9.678;2023-11-21T10:51:58;98540.78;;;10.01;100.00
29903;BME280;30288;50.514;9.678;2023-11-21T10:54:04;98545.78;;;10.02;100.00
29903;BME280;30288;50.514;9.678;2023-11-21T10:56:09;98544.25;;;9.97;100.00
29903;BME280;30288;50.514;9.678;2023-11-21T10:58:20;98539.22;;;9.97;100.00
29903;BME280;30288;50.514;9.678;2023-11-21T11:00:27;98541.66;;;9.98;100.00
29903;BME280;30288;50.514;9.678;2023-11-21T11:02:35;98545.81;;;10.01;100.00
29903;BME280;30288;50.514;9.678;2023-11-21T11:04:41;98544.56;;;9.85;100.00
29903;BME280;30288;50.514;9.678;2023-11-21T11:06:54;98543.81;;;9.83;100.00
29903;BME280;30288;50.514;9.678;2023-11-21T11:09:01;98542.59;;;9.65;100.00